createdAt,value
2018-07-09T00:00:52.313Z,99.90
2018-07-09T00:03:20.508Z,99.90
2018-07-09T00:05:49.952Z,99.90
2018-07-09T00:08:18.858Z,99.90
2018-07-09T00:10:59.528Z,99.90
2018-07-09T00:13:28.418Z,99.90
2018-07-09T00:15:56.898Z,99.90
2018-07-09T00:18:25.117Z,99.90
2018-07-09T00:20:53.550Z,99.90
2018-07-09T00:23:21.760Z,99.90
2018-07-09T00:25:50.807Z,99.90
2018-07-09T00:28:19.899Z,99.90
2018-07-09T00:30:48.080Z,99.90
2018-07-09T00:33:17.059Z,99.90
2018-07-09T00:35:45.657Z,99.90
2018-07-09T00:38:15.000Z,99.90
2018-07-09T00:40:43.214Z,99.90
2018-07-09T00:43:11.430Z,99.90
2018-07-09T00:45:39.625Z,99.90
2018-07-09T00:48:08.793Z,99.90
2018-07-09T00:50:37.006Z,99.90
2018-07-09T00:53:05.219Z,99.90
2018-07-09T00:55:33.408Z,99.90
2018-07-09T00:58:01.587Z,99.90
2018-07-09T01:00:29.804Z,99.90
2018-07-09T01:02:57.975Z,99.90
2018-07-09T01:05:26.179Z,99.90
2018-07-09T01:07:54.447Z,99.90
2018-07-09T01:12:50.593Z,99.90
2018-07-09T01:17:46.726Z,99.90
2018-07-09T01:20:14.928Z,99.90
2018-07-09T01:22:43.145Z,99.90
2018-07-09T01:25:11.377Z,99.90
2018-07-09T01:27:39.573Z,99.90
2018-07-09T01:30:11.317Z,99.90
2018-07-09T01:32:39.780Z,99.90
2018-07-09T01:35:09.814Z,99.90
2018-07-09T01:37:38.487Z,99.90
2018-07-09T01:40:07.387Z,99.90
2018-07-09T01:42:35.797Z,99.90
2018-07-09T01:45:04.025Z,99.90
2018-07-09T01:50:00.192Z,99.90
2018-07-09T01:52:28.740Z,99.90
2018-07-09T01:57:24.879Z,99.90
2018-07-09T02:02:21.276Z,99.90
2018-07-09T02:04:49.447Z,99.90
2018-07-09T02:07:17.627Z,99.90
2018-07-09T02:09:45.800Z,99.90
2018-07-09T02:12:14.940Z,99.90
2018-07-09T02:17:11.084Z,99.90
2018-07-09T02:19:45.864Z,99.90
2018-07-09T02:22:14.153Z,99.90
2018-07-09T02:24:42.692Z,99.90
2018-07-09T02:27:10.921Z,99.90
2018-07-09T02:29:39.155Z,99.90
2018-07-09T02:32:07.343Z,99.90
2018-07-09T02:34:35.531Z,99.90
2018-07-09T02:37:03.726Z,99.90
2018-07-09T02:39:31.918Z,99.90
2018-07-09T02:44:28.062Z,99.90
2018-07-09T02:49:24.180Z,99.90
2018-07-09T02:51:52.372Z,99.90
2018-07-09T02:56:48.498Z,99.90
2018-07-09T02:59:16.716Z,99.90
2018-07-09T03:01:44.916Z,99.90
2018-07-09T03:04:13.854Z,99.90
2018-07-09T03:09:10.008Z,99.90
2018-07-09T03:14:06.227Z,99.90
2018-07-09T03:16:34.494Z,99.90
2018-07-09T03:19:02.710Z,99.90
2018-07-09T03:21:30.873Z,99.90
2018-07-09T03:26:26.999Z,99.90
2018-07-09T03:28:55.180Z,99.90
2018-07-09T03:36:19.310Z,99.90
2018-07-09T03:38:47.513Z,99.90
2018-07-09T03:41:15.691Z,99.90
2018-07-09T03:43:44.491Z,99.90
2018-07-09T03:46:12.684Z,99.90
2018-07-09T03:48:40.863Z,99.90
2018-07-09T03:51:09.055Z,99.90
2018-07-09T03:53:37.402Z,99.90
2018-07-09T03:56:05.791Z,99.90
2018-07-09T03:58:33.978Z,99.90
2018-07-09T04:03:30.133Z,99.90
2018-07-09T04:05:58.324Z,99.90
2018-07-09T04:08:26.535Z,99.90
2018-07-09T04:10:54.744Z,99.90
2018-07-09T04:15:50.871Z,99.90
2018-07-09T04:18:22.756Z,99.90
2018-07-09T04:20:51.346Z,99.90
2018-07-09T04:23:19.621Z,99.90
2018-07-09T04:25:47.824Z,99.90
2018-07-09T04:28:16.120Z,99.90
2018-07-09T04:30:44.316Z,99.90
2018-07-09T04:33:12.516Z,99.90
2018-07-09T04:35:40.692Z,99.90
2018-07-09T04:38:08.860Z,99.90
2018-07-09T04:40:37.064Z,99.90
2018-07-09T04:43:05.241Z,99.90
2018-07-09T04:45:33.415Z,99.90
2018-07-09T04:48:01.596Z,99.90
2018-07-09T04:50:29.756Z,99.90
2018-07-09T04:52:57.942Z,99.90
2018-07-09T04:55:26.136Z,99.90
2018-07-09T04:57:54.322Z,99.90
2018-07-09T05:00:22.527Z,99.90
2018-07-09T05:05:18.667Z,99.90
2018-07-09T05:07:46.864Z,99.90
2018-07-09T05:10:15.048Z,99.90
2018-07-09T05:12:43.240Z,99.90
2018-07-09T05:15:11.423Z,99.90
2018-07-09T05:17:39.638Z,99.90
2018-07-09T05:20:08.757Z,99.90
2018-07-09T05:22:36.931Z,99.90
2018-07-09T05:25:05.103Z,99.90
2018-07-09T05:27:33.306Z,99.90
2018-07-09T05:30:01.512Z,99.90
2018-07-09T05:32:29.738Z,99.90
2018-07-09T05:34:57.917Z,99.90
2018-07-09T05:37:26.172Z,99.90
2018-07-09T05:39:54.645Z,99.90
2018-07-09T05:42:22.825Z,99.90
2018-07-09T05:44:51.004Z,99.90
2018-07-09T05:47:19.205Z,99.90
2018-07-09T05:49:48.239Z,99.90
2018-07-09T05:52:16.420Z,99.90
2018-07-09T05:54:44.652Z,99.90
2018-07-09T05:57:12.863Z,99.90
2018-07-09T05:59:41.042Z,99.90
2018-07-09T06:04:37.256Z,99.90
2018-07-09T06:07:05.468Z,99.90
2018-07-09T06:09:33.687Z,99.90
2018-07-09T06:12:01.905Z,99.90
2018-07-09T06:14:30.108Z,99.90
2018-07-09T06:16:58.296Z,99.90
2018-07-09T06:19:26.548Z,99.90
2018-07-09T06:21:54.689Z,99.90
2018-07-09T06:26:50.833Z,99.90
2018-07-09T06:29:19.074Z,99.90
2018-07-09T06:31:47.284Z,98.70
2018-07-09T06:36:43.417Z,96.50
2018-07-09T06:39:11.600Z,96.60
2018-07-09T06:49:03.691Z,94.50
2018-07-09T06:51:31.888Z,93.40
2018-07-09T06:54:00.093Z,93.60
2018-07-09T06:56:28.351Z,92.90
2018-07-09T06:58:56.536Z,92.90
2018-07-09T07:01:25.095Z,93.80
2018-07-09T07:03:53.353Z,93.50
2018-07-09T07:06:21.544Z,93.70
2018-07-09T07:08:49.806Z,94.20
2018-07-09T07:11:17.959Z,93.90
2018-07-09T07:16:14.302Z,93.60
2018-07-09T07:21:10.425Z,95.10
2018-07-09T07:23:38.602Z,96.00
2018-07-09T07:26:06.809Z,97.70
2018-07-09T07:28:34.964Z,99.40
2018-07-09T07:33:31.093Z,99.90
2018-07-09T07:35:59.284Z,99.90
2018-07-09T07:38:27.488Z,99.90
2018-07-09T07:40:55.680Z,99.90
2018-07-09T07:43:23.864Z,99.90
2018-07-09T07:45:52.040Z,99.90
2018-07-09T07:48:20.236Z,99.90
2018-07-09T07:50:48.413Z,99.90
2018-07-09T07:53:16.601Z,99.90
2018-07-09T07:55:44.821Z,99.90
2018-07-09T07:58:13.018Z,99.90
2018-07-09T08:00:41.193Z,99.90
2018-07-09T08:03:09.373Z,99.90
2018-07-09T08:05:37.696Z,99.90
2018-07-09T08:08:05.899Z,99.90
2018-07-09T08:10:34.076Z,99.90
2018-07-09T08:13:27.172Z,99.90
2018-07-09T08:15:30.485Z,99.90
2018-07-09T08:17:58.669Z,99.90
2018-07-09T08:20:26.914Z,99.90
2018-07-09T08:22:55.092Z,99.90
2018-07-09T08:27:51.302Z,99.90
2018-07-09T08:30:19.524Z,99.90
2018-07-09T08:32:47.701Z,99.90
2018-07-09T08:35:15.919Z,99.90
2018-07-09T08:37:44.120Z,99.90
2018-07-09T08:45:08.943Z,99.90
2018-07-09T08:47:37.215Z,99.90
2018-07-09T08:50:05.808Z,99.90
2018-07-09T08:55:01.986Z,99.30
2018-07-09T08:57:30.191Z,99.40
2018-07-09T08:59:58.373Z,99.90
2018-07-09T09:02:26.565Z,99.90
2018-07-09T09:04:54.737Z,99.90
2018-07-09T09:07:22.900Z,99.90
2018-07-09T09:09:51.152Z,99.90
2018-07-09T09:12:19.330Z,99.90
2018-07-09T09:14:47.564Z,99.00
2018-07-09T09:17:15.740Z,99.20
2018-07-09T09:19:43.984Z,98.90
2018-07-09T09:22:12.181Z,99.10
2018-07-09T09:29:36.319Z,99.10
2018-07-09T09:32:04.577Z,99.30
2018-07-09T09:34:32.743Z,99.80
2018-07-09T09:37:00.937Z,99.30
2018-07-09T09:39:29.115Z,98.70
2018-07-09T09:41:57.294Z,99.70
2018-07-09T09:44:25.481Z,99.60
2018-07-09T09:46:53.657Z,99.10
2018-07-09T09:49:21.862Z,98.60
2018-07-09T09:51:50.034Z,99.70
2018-07-09T09:54:18.217Z,98.90
2018-07-09T10:01:42.385Z,98.20
2018-07-09T10:04:10.595Z,97.30
2018-07-09T10:09:07.064Z,98.00
2018-07-09T10:16:31.171Z,96.70
2018-07-09T10:23:55.274Z,96.80
2018-07-09T10:28:51.660Z,96.80
2018-07-09T10:31:20.000Z,95.40
2018-07-09T10:38:44.116Z,95.70
2018-07-09T10:46:08.308Z,96.60
2018-07-09T10:48:36.507Z,96.50
2018-07-09T10:51:04.733Z,96.40
2018-07-09T10:53:32.919Z,96.10
2018-07-09T10:56:01.113Z,95.90
2018-07-09T11:00:57.276Z,95.90
2018-07-09T11:03:25.476Z,96.60
2018-07-09T11:05:53.744Z,96.00
2018-07-09T11:08:21.921Z,96.00
2018-07-09T11:10:50.092Z,95.30
2018-07-09T11:13:18.328Z,96.10
2018-07-09T11:18:14.475Z,96.70
2018-07-09T11:25:38.652Z,98.40
2018-07-09T11:28:06.832Z,99.20
2018-07-09T11:30:35.044Z,99.90
2018-07-09T11:33:03.240Z,99.90
2018-07-09T11:35:31.442Z,99.90
2018-07-09T11:37:59.644Z,99.90
2018-07-09T11:40:27.894Z,99.20
2018-07-09T11:42:56.087Z,99.20
2018-07-09T11:45:24.277Z,99.10
2018-07-09T11:50:20.456Z,98.30
2018-07-09T11:52:48.628Z,99.60
2018-07-09T11:55:16.794Z,99.40
2018-07-09T11:57:44.996Z,99.40
2018-07-09T12:00:14.243Z,99.50
2018-07-09T12:05:10.390Z,99.20
2018-07-09T12:15:02.808Z,99.70
2018-07-09T12:17:30.981Z,99.00
2018-07-09T12:19:59.435Z,98.60
2018-07-09T12:22:27.627Z,98.60
2018-07-09T12:24:55.820Z,99.20
2018-07-09T12:27:24.005Z,99.50
2018-07-09T12:29:52.176Z,99.90
2018-07-09T12:32:20.355Z,99.90
2018-07-09T12:34:48.535Z,99.90
2018-07-09T12:37:16.727Z,99.90
2018-07-09T12:39:44.899Z,99.90
2018-07-09T12:44:41.090Z,99.90
2018-07-09T12:47:09.328Z,99.90
2018-07-09T12:52:05.566Z,99.90
2018-07-09T12:57:01.719Z,99.90
2018-07-09T13:01:57.849Z,99.90
2018-07-09T13:06:53.992Z,99.90
2018-07-09T13:09:22.162Z,99.90
2018-07-09T13:11:50.348Z,99.90
2018-07-09T13:14:18.511Z,99.90
2018-07-09T13:19:14.690Z,99.90
2018-07-09T13:21:42.920Z,99.90
2018-07-09T13:24:11.127Z,99.90
2018-07-09T13:26:39.335Z,99.90
2018-07-09T13:29:07.568Z,99.60
2018-07-09T13:34:03.759Z,99.20
2018-07-09T13:36:31.978Z,99.70
2018-07-09T13:41:28.176Z,99.90
2018-07-09T13:43:56.488Z,99.50
2018-07-09T13:46:24.888Z,98.30
2018-07-09T13:48:53.543Z,97.60
2018-07-09T13:51:21.826Z,98.50
2018-07-09T13:53:50.044Z,98.20
2018-07-09T13:56:18.232Z,97.90
2018-07-09T13:58:46.442Z,97.80
2018-07-09T14:01:14.648Z,98.00
2018-07-09T14:03:42.877Z,98.60
2018-07-09T14:06:11.044Z,98.80
2018-07-09T14:08:39.256Z,98.90
2018-07-09T14:13:35.452Z,99.20
2018-07-09T14:16:03.640Z,98.80
2018-07-09T14:18:31.820Z,99.10
2018-07-09T14:21:00.026Z,98.90
2018-07-09T14:28:24.121Z,99.40
2018-07-09T14:30:52.318Z,98.80
2018-07-09T14:33:20.532Z,98.30
2018-07-09T14:35:48.723Z,99.00
2018-07-09T14:38:16.965Z,99.20
2018-07-09T14:40:45.203Z,98.70
2018-07-09T14:45:41.616Z,99.50
2018-07-09T14:48:09.895Z,99.90
2018-07-09T14:50:38.168Z,99.90
2018-07-09T14:53:06.408Z,99.90
2018-07-09T14:55:34.595Z,99.90
2018-07-09T14:58:02.783Z,99.90
2018-07-09T15:00:31.003Z,99.90
2018-07-09T15:02:59.219Z,99.90
2018-07-09T15:05:27.392Z,99.90
2018-07-09T15:07:55.630Z,99.90
2018-07-09T15:12:51.799Z,99.90
2018-07-09T15:15:19.988Z,99.90
2018-07-09T15:17:48.186Z,99.90
2018-07-09T15:20:16.440Z,99.90
2018-07-09T15:22:44.619Z,99.90
2018-07-09T15:25:12.867Z,99.90
2018-07-09T15:27:41.268Z,99.90
2018-07-09T15:30:09.461Z,99.90
2018-07-09T15:32:37.624Z,99.90
2018-07-09T15:35:05.855Z,99.90
2018-07-09T15:37:34.070Z,99.90
2018-07-09T15:40:02.271Z,99.90
2018-07-09T15:42:30.474Z,99.90
2018-07-09T15:44:58.659Z,99.90
2018-07-09T15:47:26.893Z,99.90
2018-07-09T15:49:55.064Z,99.90
2018-07-09T15:52:23.286Z,99.90
2018-07-09T15:54:51.483Z,99.90
2018-07-09T15:57:19.627Z,99.90
2018-07-09T15:59:47.802Z,99.90
2018-07-09T16:02:16.012Z,99.90
2018-07-09T16:04:44.254Z,99.90
2018-07-09T16:07:12.436Z,99.90
2018-07-09T16:09:40.688Z,99.90
2018-07-09T16:12:08.881Z,99.90
2018-07-09T16:14:37.057Z,99.90
2018-07-09T16:17:05.368Z,99.90
2018-07-09T16:19:33.535Z,99.90
2018-07-09T16:22:01.777Z,99.90
2018-07-09T16:24:30.060Z,99.90
2018-07-09T16:26:58.308Z,99.90
2018-07-09T16:29:26.588Z,99.90
2018-07-09T16:31:54.688Z,99.90
2018-07-09T16:34:22.952Z,99.90
2018-07-09T16:36:51.124Z,99.90
2018-07-09T16:39:19.339Z,99.90
2018-07-09T16:41:47.540Z,99.90
2018-07-09T16:46:43.794Z,99.90
2018-07-09T16:49:11.967Z,99.90
2018-07-09T16:51:40.272Z,99.90
2018-07-09T16:54:09.094Z,99.90
2018-07-09T16:56:37.300Z,99.90
2018-07-09T17:01:33.576Z,99.90
2018-07-09T17:04:01.797Z,99.90
2018-07-09T17:06:30.097Z,99.90
2018-07-09T17:08:58.252Z,99.90
2018-07-09T17:11:27.369Z,99.90
2018-07-09T17:13:55.595Z,99.90
2018-07-09T17:16:23.760Z,99.90
2018-07-09T17:18:52.005Z,99.90
2018-07-09T17:21:20.200Z,99.90
2018-07-09T17:23:48.391Z,99.90
2018-07-09T17:26:16.608Z,99.90
2018-07-09T17:28:44.814Z,99.90
2018-07-09T17:31:13.004Z,99.90
2018-07-09T17:33:41.254Z,99.90
2018-07-09T17:36:09.440Z,99.90
2018-07-09T17:38:37.616Z,99.90
2018-07-09T17:41:05.987Z,99.90
2018-07-09T17:43:34.215Z,99.90
2018-07-09T17:46:02.360Z,99.90
2018-07-09T17:48:30.598Z,99.90
2018-07-09T17:50:58.780Z,99.90
2018-07-09T17:53:26.963Z,99.90
2018-07-09T17:55:55.156Z,99.90
2018-07-09T17:58:23.361Z,99.90
2018-07-09T18:00:51.539Z,99.90
2018-07-09T18:03:19.788Z,99.90
2018-07-09T18:05:47.952Z,99.90
2018-07-09T18:08:16.186Z,99.90
2018-07-09T18:10:44.404Z,99.90
2018-07-09T18:13:12.580Z,99.90
2018-07-09T18:15:40.908Z,99.90
2018-07-09T18:18:09.417Z,99.90
2018-07-09T18:20:37.681Z,99.90
2018-07-09T18:23:06.309Z,99.90
2018-07-09T18:25:34.554Z,99.90
2018-07-09T18:28:02.719Z,99.90
2018-07-09T18:30:30.904Z,99.90
2018-07-09T18:32:59.221Z,99.90
2018-07-09T18:35:27.443Z,99.90
2018-07-09T18:37:55.578Z,99.90
2018-07-09T18:40:23.752Z,99.90
2018-07-09T18:42:51.928Z,99.90
2018-07-09T18:47:48.071Z,99.90
2018-07-09T18:50:16.249Z,99.90
2018-07-09T18:55:12.405Z,99.90
2018-07-09T18:57:40.623Z,99.90
2018-07-09T19:00:08.819Z,99.90
2018-07-09T19:02:37.008Z,99.90
2018-07-09T19:05:05.264Z,99.90
2018-07-09T19:07:33.432Z,99.90
2018-07-09T19:10:01.619Z,99.90
2018-07-09T19:12:34.972Z,99.90
2018-07-09T19:15:04.966Z,99.90
2018-07-09T19:18:10.815Z,99.90
2018-07-09T19:21:19.243Z,99.90
2018-07-09T19:23:46.451Z,99.90
2018-07-09T19:26:13.967Z,99.90
2018-07-09T19:28:41.160Z,99.90
2018-07-09T19:31:09.303Z,99.90
2018-07-09T19:33:36.927Z,99.90
2018-07-09T19:36:04.408Z,99.90
2018-07-09T19:38:31.654Z,99.90
2018-07-09T19:40:58.880Z,99.90
2018-07-09T19:43:26.072Z,99.90
2018-07-09T19:45:53.333Z,99.90
2018-07-09T19:48:20.480Z,99.90
2018-07-09T19:50:48.307Z,99.90
2018-07-09T19:53:15.548Z,99.90
2018-07-09T19:55:43.348Z,99.90
2018-07-09T19:58:10.577Z,99.90
2018-07-09T20:00:38.452Z,99.90
2018-07-09T20:03:06.531Z,99.90
2018-07-09T20:05:33.849Z,99.90
2018-07-09T20:10:34.420Z,99.90
2018-07-09T20:13:05.012Z,99.90
2018-07-09T20:15:37.565Z,99.90
2018-07-09T20:18:04.935Z,99.90
2018-07-09T20:20:32.101Z,99.90
2018-07-09T20:22:59.301Z,99.90
2018-07-09T20:25:26.507Z,99.90
2018-07-09T20:27:53.703Z,99.90
2018-07-09T20:30:20.917Z,99.90
2018-07-09T20:32:48.159Z,99.90
2018-07-09T20:35:15.293Z,99.90
2018-07-09T20:40:10.135Z,99.90
2018-07-09T20:42:37.256Z,99.90
2018-07-09T20:47:31.979Z,99.90
2018-07-09T20:49:59.192Z,99.90
2018-07-09T20:52:26.381Z,99.90
2018-07-09T20:54:53.574Z,99.90
2018-07-09T20:57:20.784Z,99.90
2018-07-09T20:59:48.003Z,99.90
2018-07-09T21:02:15.204Z,99.90
2018-07-09T21:04:42.425Z,99.90
2018-07-09T21:07:09.636Z,99.90
2018-07-09T21:09:36.880Z,99.90
2018-07-09T21:12:06.519Z,99.90
2018-07-09T21:14:33.726Z,99.90
2018-07-09T21:17:00.916Z,99.90
2018-07-09T21:19:28.168Z,99.90
2018-07-09T21:21:55.374Z,99.90
2018-07-09T21:24:22.593Z,99.90
2018-07-09T21:26:49.785Z,99.90
2018-07-09T21:29:16.988Z,99.90
2018-07-09T21:34:11.656Z,99.90
2018-07-09T21:36:38.866Z,99.90
2018-07-09T21:39:06.092Z,99.90
2018-07-09T21:46:28.203Z,99.90
2018-07-09T21:48:55.399Z,99.90
2018-07-09T21:51:22.605Z,99.90
2018-07-09T21:53:49.817Z,99.90
2018-07-09T21:56:17.019Z,99.90
2018-07-09T21:58:44.219Z,99.90
2018-07-09T22:01:11.441Z,99.90
2018-07-09T22:03:38.641Z,99.90
2018-07-09T22:06:05.870Z,99.90
2018-07-09T22:08:33.037Z,99.90
2018-07-09T22:11:00.240Z,99.90
2018-07-09T22:13:27.452Z,99.90
2018-07-09T22:15:54.640Z,99.90
2018-07-09T22:18:21.841Z,99.90
2018-07-09T22:20:49.056Z,99.90
2018-07-09T22:23:16.265Z,99.90
2018-07-09T22:25:43.564Z,99.90
2018-07-09T22:28:10.764Z,99.90
2018-07-09T22:30:38.974Z,99.90
2018-07-09T22:33:07.176Z,99.90
2018-07-09T22:35:35.336Z,99.90
2018-07-09T22:38:03.527Z,99.90
2018-07-09T22:43:05.121Z,99.90
2018-07-09T22:45:33.321Z,99.90
2018-07-09T22:48:01.496Z,99.90
2018-07-09T22:50:29.688Z,99.90
2018-07-09T22:52:57.879Z,99.90
2018-07-09T22:57:59.637Z,99.90
2018-07-09T23:00:27.807Z,99.90
2018-07-09T23:03:09.436Z,99.90
2018-07-09T23:05:38.010Z,99.90
2018-07-09T23:11:44.880Z,99.90
2018-07-09T23:16:39.412Z,99.90
2018-07-09T23:21:59.647Z,99.90
2018-07-09T23:24:27.431Z,99.90
2018-07-09T23:26:55.143Z,99.90
2018-07-09T23:31:49.967Z,99.90
2018-07-09T23:34:17.936Z,99.90
2018-07-09T23:36:45.127Z,99.90
2018-07-09T23:39:12.543Z,99.90
2018-07-09T23:41:39.739Z,99.90
2018-07-09T23:44:06.939Z,99.90
2018-07-09T23:46:34.163Z,99.90
2018-07-09T23:49:01.373Z,99.90
2018-07-09T23:51:28.595Z,99.90
2018-07-09T23:53:55.795Z,99.90
2018-07-09T23:57:01.813Z,99.90
2018-07-09T23:59:41.544Z,99.90
